Observation data for McLean on 03/05/2021      Previous  Date  Next       Current Mesonet Observations  Soil Data  Daily Summary Page  Observations in Plain Language
KMCS 050600Z 32012KT 07/M02 A2986 RMK A01 T00701017  RH  054%=      5-min Rain = 0
KMCS 050605Z 32013KT 07/M02 A2986 RMK A01 T00731015  RH  054%=      5-min Rain = 0
KMCS 050610Z 32014KT 08/M01 A2986 RMK A01 T00781010  RH  054%=      5-min Rain = 0
KMCS 050615Z 32013KT 08/M01 A2986 RMK A01 T00801008  RH  054%=      5-min Rain = 0
KMCS 050620Z 31013KT 08/M01 A2985 RMK A01 T00781007  RH  055%=      5-min Rain = 0
KMCS 050625Z 31013KT 08/M01 A2985 RMK A01 T00771006  RH  056%=      5-min Rain = 0
KMCS 050630Z 31014KT 08/M01 A2985 RMK A01 T00761005  RH  057%=      5-min Rain = 0
KMCS 050635Z 31014KT 08/M00 A2985 RMK A01 T00761004  RH  057%=      5-min Rain = 0
KMCS 050640Z 32015KT 08/00 A2985 RMK A01 T008100-0  RH  057%=      5-min Rain = 0
KMCS 050645Z 32016KT 09/00 A2986 RMK A01 T00860003  RH  056%=      5-min Rain = 0
KMCS 050650Z 31017KT 09/01 A2986 RMK A01 T00890005  RH  056%=      5-min Rain = 0
KMCS 050655Z 31017KT 09/01 A2986 RMK A01 T00880006  RH  057%=      5-min Rain = 0
KMCS 050700Z 31018KT 09/01 A2987 RMK A01 T00870007  RH  058%=      5-min Rain = 0
KMCS 050705Z 31018KT 09/01 A2987 RMK A01 T00870008  RH  058%=      5-min Rain = 0
KMCS 050710Z 31019G26KT 09/01 A2987 RMK A01 T00870009  RH  059%=      5-min Rain = 0
KMCS 050715Z 32019G24KT 09/01 A2987 RMK A01 T00900009  RH  058%=      5-min Rain = 0
KMCS 050720Z 31017KT 09/01 A2987 RMK A01 T00880009  RH  058%=      5-min Rain = 0
KMCS 050725Z 31017KT 09/01 A2988 RMK A01 T00870008  RH  059%=      5-min Rain = 0
KMCS 050730Z 31016KT 08/01 A2988 RMK A01 T00830008  RH  060%=      5-min Rain = 0
KMCS 050735Z 31015KT 08/01 A2988 RMK A01 T00800007  RH  061%=      5-min Rain = 0
KMCS 050740Z 31015KT 08/01 A2988 RMK A01 T00760006  RH  062%=      5-min Rain = 0
KMCS 050745Z 32015KT 08/01 A2989 RMK A01 T00760006  RH  062%=      5-min Rain = 0
KMCS 050750Z 32014KT 08/01 A2989 RMK A01 T00760006  RH  062%=      5-min Rain = 0
KMCS 050755Z 33013KT 07/01 A2989 RMK A01 T00720005  RH  063%=      5-min Rain = 0
KMCS 050800Z 32013KT 07/01 A2989 RMK A01 T00700005  RH  064%=      5-min Rain = 0
KMCS 050805Z 33014KT 07/01 A2989 RMK A01 T00700005  RH  064%=      5-min Rain = 0
KMCS 050810Z 33013KT 07/01 A2989 RMK A01 T00710006  RH  064%=      5-min Rain = 0
KMCS 050815Z 32014KT 07/01 A2989 RMK A01 T00680006  RH  065%=      5-min Rain = 0
KMCS 050820Z 32012KT 07/01 A2989 RMK A01 T00660006  RH  067%=      5-min Rain = 0
KMCS 050825Z 32013KT 07/01 A299 RMK A01 T00650008  RH  068%=      5-min Rain = 0
KMCS 050830Z 32012KT 06/01 A299 RMK A01 T00640008  RH  068%=      5-min Rain = 0
KMCS 050835Z 32011KT 06/01 A299 RMK A01 T00630009  RH  069%=      5-min Rain = 0
KMCS 050840Z 33011KT 06/01 A299 RMK A01 T00620010  RH  070%=      5-min Rain = 0
KMCS 050845Z 32010KT 06/01 A299 RMK A01 T00610010  RH  071%=      5-min Rain = 0
KMCS 050850Z 33011KT 06/01 A299 RMK A01 T00590010  RH  072%=      5-min Rain = 0
KMCS 050855Z 33012KT 06/01 A299 RMK A01 T00580011  RH  072%=      5-min Rain = 0
KMCS 050900Z 33011KT 06/01 A299 RMK A01 T00580011  RH  073%=      5-min Rain = 0
KMCS 050905Z 33011KT 06/01 A299 RMK A01 T00580012  RH  073%=      5-min Rain = 0
KMCS 050910Z 32012KT 06/01 A2991 RMK A01 T00580013  RH  074%=      5-min Rain = 0
KMCS 050915Z 32012KT 06/01 A2991 RMK A01 T00600014  RH  073%=      5-min Rain = 0
KMCS 050920Z 33012KT 06/02 A2991 RMK A01 T00610015  RH  073%=      5-min Rain = 0
KMCS 050925Z 33014KT 06/02 A2991 RMK A01 T00640016  RH  072%=      5-min Rain = 0
KMCS 050930Z 33015KT 07/02 A2991 RMK A01 T00660017  RH  072%=      5-min Rain = 0
KMCS 050935Z 33015KT 07/02 A299 RMK A01 T00660017  RH  072%=      5-min Rain = 0
KMCS 050940Z 34013KT 07/02 A299 RMK A01 T00650016  RH  072%=      5-min Rain = 0
KMCS 050945Z 33013KT 06/02 A299 RMK A01 T00620016  RH  073%=      5-min Rain = 0
KMCS 050950Z 33011KT 06/02 A2991 RMK A01 T00590015  RH  074%=      5-min Rain = 0
KMCS 050955Z 33009KT 06/01 A2991 RMK A01 T00550014  RH  076%=      5-min Rain = 0
KMCS 051000Z 33008KT 05/01 A2991 RMK A01 T00530013  RH  077%=      5-min Rain = 0
KMCS 051005Z 33007KT 05/01 A2991 RMK A01 T00500012  RH  078%=      5-min Rain = 0
KMCS 051010Z 33010KT 05/01 A2991 RMK A01 T00470011  RH  079%=      5-min Rain = 0
KMCS 051015Z 33011KT 04/01 A2991 RMK A01 T00440010  RH  080%=      5-min Rain = 0
KMCS 051020Z 33010KT 04/01 A2991 RMK A01 T00440011  RH  080%=      5-min Rain = 0
KMCS 051025Z 34009KT 04/01 A2991 RMK A01 T00410009  RH  081%=      5-min Rain = 0
KMCS 051030Z 33010KT 04/01 A2991 RMK A01 T00400009  RH  082%=      5-min Rain = 0
KMCS 051035Z 34008KT 04/01 A2991 RMK A01 T00390009  RH  082%=      5-min Rain = 0
KMCS 051040Z 34009KT 04/01 A2991 RMK A01 T00380009  RH  082%=      5-min Rain = 0
KMCS 051045Z 34010KT 04/01 A2992 RMK A01 T00370008  RH  082%=      5-min Rain = 0
KMCS 051050Z 34010KT 04/01 A2992 RMK A01 T00380009  RH  083%=      5-min Rain = 0
KMCS 051055Z 34010KT 04/01 A2992 RMK A01 T00370009  RH  083%=      5-min Rain = 0
KMCS 051100Z 34008KT 04/01 A2993 RMK A01 T00360008  RH  083%=      5-min Rain = 0
KMCS 051105Z 34007KT 03/01 A2993 RMK A01 T00330007  RH  084%=      5-min Rain = 0
KMCS 051110Z 32008KT 03/01 A2994 RMK A01 T00280005  RH  086%=      5-min Rain = 0
KMCS 051115Z 32008KT 03/01 A2994 RMK A01 T00310009  RH  087%=      5-min Rain = 0
KMCS 051120Z 32008KT 03/01 A2994 RMK A01 T00330010  RH  086%=      5-min Rain = 0
KMCS 051125Z 31006KT 03/01 A2994 RMK A01 T00340011  RH  086%=      5-min Rain = 0
KMCS 051130Z 31006KT 03/01 A2994 RMK A01 T00320008  RH  086%=      5-min Rain = 0
KMCS 051135Z 31007KT 03/01 A2994 RMK A01 T00300008  RH  087%=      5-min Rain = 0
KMCS 051140Z 32008KT 03/01 A2995 RMK A01 T00270006  RH  087%=      5-min Rain = 0
KMCS 051145Z 32009KT 02/01 A2995 RMK A01 T00240005  RH  088%=      5-min Rain = 0
KMCS 051150Z 32009KT 02/00 A2995 RMK A01 T00220003  RH  088%=      5-min Rain = 0
KMCS 051155Z 32009KT 02/00 A2996 RMK A01 T00200003  RH  089%=      5-min Rain = 0
KMCS 051200Z 33009KT 02/00 A2996 RMK A01 T00200003  RH  090%=      5-min Rain = 0
KMCS 051205Z 34009KT 02/01 A2997 RMK A01 T00230007  RH  090%=      5-min Rain = 0
KMCS 051210Z 34010KT 03/01 A2997 RMK A01 T00270011  RH  090%=      5-min Rain = 0
KMCS 051215Z 34010KT 03/02 A2998 RMK A01 T00340016  RH  090%=      5-min Rain = 0
KMCS 051220Z 34009KT 04/02 A2998 RMK A01 T00380018  RH  088%=      5-min Rain = 0
KMCS 051225Z 34008KT 04/02 A2998 RMK A01 T00400019  RH  088%=      5-min Rain = 0
KMCS 051230Z 34008KT 04/02 A2999 RMK A01 T00420022  RH  088%=      5-min Rain = 0
KMCS 051235Z 34008KT 05/02 A2999 RMK A01 T00450024  RH  088%=      5-min Rain = 0
KMCS 051240Z 33009KT 05/03 A2999 RMK A01 T00470025  RH  087%=      5-min Rain = 0
KMCS 051245Z 33010KT 05/03 A30 RMK A01 T00480025  RH  086%=      5-min Rain = 0
KMCS 051250Z 34012KT 05/03 A30 RMK A01 T00520026  RH  085%=      5-min Rain = 0
KMCS 051255Z 34015KT 06/03 A3001 RMK A01 T00550026  RH  083%=      5-min Rain = 0
KMCS 051300Z 34016KT 06/02 A3001 RMK A01 T00550024  RH  082%=      5-min Rain = 0
KMCS 051305Z 34015KT 05/02 A3001 RMK A01 T00540023  RH  082%=      5-min Rain = 0
KMCS 051310Z 34013KT 05/02 A3002 RMK A01 T00530023  RH  082%=      5-min Rain = 0
KMCS 051315Z 34014KT 05/02 A3002 RMK A01 T00540023  RH  082%=      5-min Rain = 0
KMCS 051320Z 34013KT 05/02 A3002 RMK A01 T00540023  RH  082%=      5-min Rain = 0
KMCS 051325Z 34013G18KT 06/02 A3003 RMK A01 T00550023  RH  081%=      5-min Rain = 0
KMCS 051330Z 34012KT 06/02 A3003 RMK A01 T00560024  RH  081%=      5-min Rain = 0
KMCS 051335Z 35012KT 06/03 A3003 RMK A01 T00580026  RH  081%=      5-min Rain = 0
KMCS 051340Z 35012KT 06/03 A3003 RMK A01 T00600028  RH  081%=      5-min Rain = 0
KMCS 051345Z 35012KT 06/03 A3003 RMK A01 T00620030  RH  081%=      5-min Rain = 0
KMCS 051350Z 36012G17KT 07/04 A3004 RMK A01 T00650035  RH  083%=      5-min Rain = 0
KMCS 051355Z 36014G19KT 07/04 A3004 RMK A01 T00680040  RH  084%=      5-min Rain = 0
KMCS 051400Z 36014KT 07/04 A3005 RMK A01 T00690043  RH  085%=      5-min Rain = 0
KMCS 051405Z 36015KT 07/04 A3005 RMK A01 T00700044  RH  085%=      5-min Rain = 0
KMCS 051410Z 35014KT 07/05 A3006 RMK A01 T00700045  RH  086%=      5-min Rain = 0
KMCS 051415Z 35015KT 07/05 A3006 RMK A01 T00700046  RH  086%=      5-min Rain = 0
KMCS 051420Z 35015KT 07/05 A3007 RMK A01 T00700046  RH  087%=      5-min Rain = 0
KMCS 051425Z 35014G19KT 07/05 A3007 RMK A01 T00690047  RH  088%=      5-min Rain = 0
KMCS 051430Z 35013G19KT 07/05 A3007 RMK A01 T00680048  RH  089%=      5-min Rain = 0
KMCS 051435Z 35013KT 07/05 A3008 RMK A01 T00690050  RH  090%=      5-min Rain = 0
KMCS 051440Z 35012KT 07/05 A3008 RMK A01 T00690052  RH  091%=      5-min Rain = 0
KMCS 051445Z 35013KT 07/05 A3008 RMK A01 T00700053  RH  091%=      5-min Rain = 0
KMCS 051450Z 35012KT 07/05 A3008 RMK A01 T00710054  RH  091%=      5-min Rain = 0
KMCS 051455Z 35013G18KT 07/06 A3009 RMK A01 T00730055  RH  091%=      5-min Rain = 0
KMCS 051500Z 35015G21KT 08/06 A3009 RMK A01 T00750057  RH  091%=      5-min Rain = 0
KMCS 051505Z 35015KT 08/06 A3009 RMK A01 T00770058  RH  090%=      5-min Rain = 0
KMCS 051510Z 35015G20KT 08/06 A3009 RMK A01 T00780059  RH  090%=      5-min Rain = 0
KMCS 051515Z 35016G21KT 08/06 A3009 RMK A01 T00770060  RH  091%=      5-min Rain = 0
KMCS 051520Z 35014G19KT 08/06 A3009 RMK A01 T00770062  RH  092%=      5-min Rain = 0
KMCS 051525Z 35018G25KT 08/06 A3009 RMK A01 T00780062  RH  092%=      5-min Rain = 0
KMCS 051530Z 35016G22KT 08/06 A301 RMK A01 T00790061  RH  091%=      5-min Rain = 0
KMCS 051535Z 36020G25KT 08/06 A301 RMK A01 T00800060  RH  089%=      5-min Rain = 0
KMCS 051540Z 35021G28KT 08/06 A301 RMK A01 T00790056  RH  087%=      5-min Rain = 0
KMCS 051545Z 36021G29KT 08/06 A3011 RMK A01 T00750055  RH  089%=      5-min Rain = 0
KMCS 051550Z 01021G31KT 07/06 A3011 RMK A01 T00740055  RH  090%=      5-min Rain = 0
KMCS 051555Z 01020G32KT 07/05 A3012 RMK A01 T00730054  RH  090%=      5-min Rain = 0
KMCS 051600Z 02021G27KT 07/05 A3013 RMK A01 T00710053  RH  090%=      5-min Rain = 0
KMCS 051605Z 02021G31KT 07/05 A3013 RMK A01 T00690053  RH  092%=      5-min Rain = 0
KMCS 051610Z 01019G27KT 07/05 A3014 RMK A01 T00690054  RH  092%=      5-min Rain = 0
KMCS 051615Z 02020G30KT 07/05 A3014 RMK A01 T00710053  RH  091%=      5-min Rain = 0
KMCS 051620Z 02019G25KT 07/05 A3014 RMK A01 T00720053  RH  090%=      5-min Rain = 0
KMCS 051625Z 01019G30KT 07/05 A3015 RMK A01 T00740052  RH  087%=      5-min Rain = 0
KMCS 051630Z 02021G26KT 07/05 A3015 RMK A01 T00740050  RH  087%=      5-min Rain = 0
KMCS 051635Z 02021G27KT 07/05 A3015 RMK A01 T00730050  RH  087%=      5-min Rain = 0
KMCS 051640Z 02019G26KT 07/05 A3016 RMK A01 T00740051  RH  087%=      5-min Rain = 0
KMCS 051645Z 01019G26KT 08/05 A3016 RMK A01 T00820052  RH  083%=      5-min Rain = 0
KMCS 051650Z 02020G29KT 08/05 A3016 RMK A01 T00830049  RH  081%=      5-min Rain = 0
KMCS 051655Z 02019G29KT 08/05 A3016 RMK A01 T00840047  RH  079%=      5-min Rain = 0
KMCS 051700Z 01018G24KT 10/05 A3016 RMK A01 T00960051  RH  075%=      5-min Rain = 0
KMCS 051705Z 02020G30KT 09/04 A3017 RMK A01 T00900043  RH  074%=      5-min Rain = 0
KMCS 051710Z 02021G28KT 09/04 A3017 RMK A01 T00860041  RH  075%=      5-min Rain = 0
KMCS 051715Z 02021G29KT 08/04 A3017 RMK A01 T00840042  RH  077%=      5-min Rain = 0
KMCS 051720Z 02021G30KT 08/04 A3017 RMK A01 T00820044  RH  078%=      5-min Rain = 0
KMCS 051725Z 02020G26KT 08/05 A3017 RMK A01 T00790046  RH  081%=      5-min Rain = 0
KMCS 051730Z 02018G28KT 08/05 A3017 RMK A01 T00810047  RH  081%=      5-min Rain = 0
KMCS 051735Z 02020G30KT 09/05 A3017 RMK A01 T00900048  RH  077%=      5-min Rain = 0
KMCS 051740Z 02022G30KT 09/04 A3017 RMK A01 T00880044  RH  075%=      5-min Rain = 0
KMCS 051745Z 02021G31KT 09/04 A3017 RMK A01 T00870044  RH  076%=      5-min Rain = 0
KMCS 051750Z 02020G27KT 09/05 A3017 RMK A01 T00920046  RH  074%=      5-min Rain = 0
KMCS 051755Z 02020G27KT 10/05 A3017 RMK A01 T00950045  RH  072%=      5-min Rain = 0
KMCS 051800Z 02023G32KT 09/04 A3017 RMK A01 T00920041  RH  072%=      5-min Rain = 0
KMCS 051805Z 03022G30KT 09/04 A3017 RMK A01 T00880043  RH  075%=      5-min Rain = 0
KMCS 051810Z 03021G31KT 09/04 A3017 RMK A01 T00910044  RH  074%=      5-min Rain = 0
KMCS 051815Z 02020G32KT 09/04 A3018 RMK A01 T00900044  RH  074%=      5-min Rain = 0
KMCS 051820Z 02020G27KT 09/04 A3018 RMK A01 T00900044  RH  075%=      5-min Rain = 0
KMCS 051825Z 02021G32KT 09/04 A3018 RMK A01 T00880044  RH  076%=      5-min Rain = 0
KMCS 051830Z 02022G29KT 09/05 A3018 RMK A01 T00850045  RH  077%=      5-min Rain = 0
KMCS 051835Z 02017G25KT 09/05 A3018 RMK A01 T00860047  RH  078%=      5-min Rain = 0
KMCS 051840Z 02018G26KT 09/05 A3018 RMK A01 T00870046  RH  077%=      5-min Rain = 0
KMCS 051845Z 02018G23KT 09/05 A3018 RMK A01 T00880047  RH  077%=      5-min Rain = 0
KMCS 051850Z 01018G26KT 09/05 A3018 RMK A01 T00920048  RH  076%=      5-min Rain = 0
KMCS 051855Z 01017G25KT 09/05 A3018 RMK A01 T00920048  RH  075%=      5-min Rain = 0
KMCS 051900Z 01017G24KT 09/05 A3019 RMK A01 T00910046  RH  075%=      5-min Rain = 0
KMCS 051905Z 01017G23KT 09/05 A3019 RMK A01 T00880046  RH  077%=      5-min Rain = 0
KMCS 051910Z 02016G22KT 09/05 A3019 RMK A01 T00870046  RH  077%=      5-min Rain = 0
KMCS 051915Z 02017G25KT 09/05 A3019 RMK A01 T00880046  RH  077%=      5-min Rain = 0
KMCS 051920Z 02016G23KT 09/05 A3019 RMK A01 T00890048  RH  077%=      5-min Rain = 0
KMCS 051925Z 01014G22KT 09/05 A3019 RMK A01 T00910050  RH  077%=      5-min Rain = 0
KMCS 051930Z 01018G24KT 09/05 A3019 RMK A01 T00920048  RH  076%=      5-min Rain = 0
KMCS 051935Z 01018G25KT 09/05 A3019 RMK A01 T00930048  RH  075%=      5-min Rain = 0
KMCS 051940Z 02017G24KT 10/05 A3018 RMK A01 T01010048  RH  071%=      5-min Rain = 0
KMCS 051945Z 03018G24KT 10/04 A3018 RMK A01 T00990041  RH  068%=      5-min Rain = 0
KMCS 051950Z 03018G26KT 10/04 A3018 RMK A01 T00960041  RH  070%=      5-min Rain = 0
KMCS 051955Z 03018G25KT 10/04 A3018 RMK A01 T00960043  RH  071%=      5-min Rain = 0
KMCS 052000Z 02016KT 10/05 A3018 RMK A01 T01040047  RH  069%=      5-min Rain = 0
KMCS 052005Z 02015G21KT 10/04 A3018 RMK A01 T01020043  RH  068%=      5-min Rain = 0
KMCS 052010Z 02015G20KT 10/04 A3018 RMK A01 T01010042  RH  068%=      5-min Rain = 0
KMCS 052015Z 01015G20KT 10/04 A3018 RMK A01 T01000042  RH  069%=      5-min Rain = 0
KMCS 052020Z 02017G24KT 11/05 A3018 RMK A01 T01100046  RH  066%=      5-min Rain = 0
KMCS 052025Z 02017G22KT 11/04 A3018 RMK A01 T01100042  RH  064%=      5-min Rain = 0
KMCS 052030Z 02018G25KT 11/04 A3018 RMK A01 T01100041  RH  064%=      5-min Rain = 0
KMCS 052035Z 02017G24KT 11/04 A3017 RMK A01 T01110041  RH  063%=      5-min Rain = 0
KMCS 052040Z 01019G25KT 11/04 A3018 RMK A01 T01100040  RH  063%=      5-min Rain = 0
KMCS 052045Z 02019G27KT 11/04 A3018 RMK A01 T01090040  RH  064%=      5-min Rain = 0
KMCS 052050Z 02018G27KT 11/04 A3018 RMK A01 T01120042  RH  063%=      5-min Rain = 0
KMCS 052055Z 02018G29KT 11/04 A3018 RMK A01 T01130043  RH  063%=      5-min Rain = 0
KMCS 052100Z 02020G26KT 12/04 A3018 RMK A01 T01180042  RH  061%=      5-min Rain = 0
KMCS 052105Z 03019G27KT 12/04 A3018 RMK A01 T01240042  RH  059%=      5-min Rain = 0
KMCS 052110Z 02020G26KT 12/04 A3018 RMK A01 T01170037  RH  059%=      5-min Rain = 0
KMCS 052115Z 02017G26KT 12/04 A3019 RMK A01 T01170036  RH  059%=      5-min Rain = 0
KMCS 052120Z 02018G24KT 12/04 A3019 RMK A01 T01150039  RH  061%=      5-min Rain = 0
KMCS 052125Z 02016G25KT 12/04 A3019 RMK A01 T01170041  RH  061%=      5-min Rain = 0
KMCS 052130Z 02020G25KT 12/04 A3019 RMK A01 T01220042  RH  059%=      5-min Rain = 0
KMCS 052135Z 02016G23KT 13/04 A3019 RMK A01 T01250044  RH  059%=      5-min Rain = 0
KMCS 052140Z 02018G24KT 13/04 A3019 RMK A01 T01320043  RH  056%=      5-min Rain = 0
KMCS 052145Z 01018G24KT 13/04 A302 RMK A01 T01260037  RH  056%=      5-min Rain = 0
KMCS 052150Z 02019G29KT 12/04 A302 RMK A01 T01200037  RH  058%=      5-min Rain = 0
KMCS 052155Z 02015G24KT 12/04 A302 RMK A01 T01180039  RH  060%=      5-min Rain = 0
KMCS 052200Z 02016G26KT 12/04 A302 RMK A01 T01170041  RH  061%=      5-min Rain = 0
KMCS 052205Z 02016G22KT 12/04 A302 RMK A01 T01170042  RH  061%=      5-min Rain = 0
KMCS 052210Z 02018G24KT 12/04 A302 RMK A01 T01170041  RH  061%=      5-min Rain = 0
KMCS 052215Z 02017G23KT 12/04 A302 RMK A01 T01160041  RH  061%=      5-min Rain = 0
KMCS 052220Z 02015G22KT 12/04 A3021 RMK A01 T01190041  RH  060%=      5-min Rain = 0
KMCS 052225Z 02015G20KT 12/04 A3021 RMK A01 T01220043  RH  059%=      5-min Rain = 0
KMCS 052230Z 01017G24KT 13/04 A3021 RMK A01 T01260041  RH  057%=      5-min Rain = 0
KMCS 052235Z 02019G26KT 12/04 A3021 RMK A01 T01230037  RH  057%=      5-min Rain = 0
KMCS 052240Z 03017G22KT 13/04 A3021 RMK A01 T01250039  RH  057%=      5-min Rain = 0
KMCS 052245Z 02016G22KT 13/04 A3021 RMK A01 T01270038  RH  056%=      5-min Rain = 0
KMCS 052250Z 02017G24KT 13/04 A3021 RMK A01 T01280038  RH  055%=      5-min Rain = 0
KMCS 052255Z 03017G24KT 13/04 A3021 RMK A01 T01270040  RH  056%=      5-min Rain = 0
KMCS 052300Z 02017G23KT 12/04 A3021 RMK A01 T01240038  RH  057%=      5-min Rain = 0
KMCS 052305Z 02017G25KT 12/04 A3021 RMK A01 T01240036  RH  056%=      5-min Rain = 0
KMCS 052310Z 02017G23KT 13/04 A3021 RMK A01 T01260035  RH  055%=      5-min Rain = 0
KMCS 052315Z 02016G24KT 13/03 A3021 RMK A01 T01260034  RH  055%=      5-min Rain = 0
KMCS 052320Z 02016G22KT 13/03 A3021 RMK A01 T01260033  RH  054%=      5-min Rain = 0
KMCS 052325Z 02017KT 12/04 A3021 RMK A01 T01240036  RH  056%=      5-min Rain = 0
KMCS 052330Z 02017G22KT 13/04 A3022 RMK A01 T01250036  RH  056%=      5-min Rain = 0
KMCS 052335Z 02015G21KT 12/04 A3022 RMK A01 T01240037  RH  056%=      5-min Rain = 0
KMCS 052340Z 03016G23KT 12/04 A3022 RMK A01 T01240035  RH  056%=      5-min Rain = 0
KMCS 052345Z 02013G18KT 12/04 A3022 RMK A01 T01230035  RH  056%=      5-min Rain = 0
KMCS 052350Z 02014G19KT 12/04 A3023 RMK A01 T01220036  RH  057%=      5-min Rain = 0
KMCS 052355Z 03011G16KT 12/04 A3023 RMK A01 T01220038  RH  058%=      5-min Rain = 0
KMCS 060000Z 05013G18KT 12/04 A3023 RMK A01 T01180042  RH  061%=      5-min Rain = 0
KMCS 060005Z 05014KT 11/04 A3023 RMK A01 T01140044  RH  063%=      5-min Rain = 0
KMCS 060010Z 05011G16KT 11/04 A3023 RMK A01 T01120044  RH  064%=      5-min Rain = 0
KMCS 060015Z 05009KT 11/04 A3023 RMK A01 T01090044  RH  066%=      5-min Rain = 0
KMCS 060020Z 05009KT 11/04 A3023 RMK A01 T01060044  RH  066%=      5-min Rain = 0
KMCS 060025Z 05008KT 10/04 A3023 RMK A01 T01040043  RH  067%=      5-min Rain = 0
KMCS 060030Z 06007KT 10/04 A3024 RMK A01 T01000043  RH  069%=      5-min Rain = 0
KMCS 060035Z 06007KT 10/04 A3024 RMK A01 T00980042  RH  069%=      5-min Rain = 0
KMCS 060040Z 06008KT 10/04 A3024 RMK A01 T00990042  RH  069%=      5-min Rain = 0
KMCS 060045Z 06008KT 10/04 A3025 RMK A01 T00970041  RH  069%=      5-min Rain = 0
KMCS 060050Z 06007KT 09/04 A3025 RMK A01 T00920039  RH  071%=      5-min Rain = 0
KMCS 060055Z 05006KT 09/04 A3025 RMK A01 T00870037  RH  072%=      5-min Rain = 0
KMCS 060100Z 05006KT 08/04 A3025 RMK A01 T00830036  RH  074%=      5-min Rain = 0
KMCS 060105Z 05006KT 08/04 A3025 RMK A01 T00800035  RH  075%=      5-min Rain = 0
KMCS 060110Z 05006KT 08/04 A3026 RMK A01 T00790035  RH  075%=      5-min Rain = 0
KMCS 060115Z 05005KT 08/04 A3025 RMK A01 T00780035  RH  076%=      5-min Rain = 0
KMCS 060120Z 06005KT 08/03 A3025 RMK A01 T00770034  RH  076%=      5-min Rain = 0
KMCS 060125Z 05005KT 08/03 A3026 RMK A01 T00750034  RH  076%=      5-min Rain = 0
KMCS 060130Z 06005KT 08/03 A3026 RMK A01 T00770034  RH  075%=      5-min Rain = 0
KMCS 060135Z 07005KT 08/03 A3026 RMK A01 T00760033  RH  076%=      5-min Rain = 0
KMCS 060140Z 08005KT 07/03 A3026 RMK A01 T00740032  RH  076%=      5-min Rain = 0
KMCS 060145Z 08004KT 07/03 A3026 RMK A01 T00720032  RH  077%=      5-min Rain = 0
KMCS 060150Z 08003KT 07/03 A3026 RMK A01 T00720033  RH  077%=      5-min Rain = 0
KMCS 060155Z 08003KT 07/03 A3026 RMK A01 T00730033  RH  077%=      5-min Rain = 0
KMCS 060200Z 10003KT 07/03 A3026 RMK A01 T00740034  RH  077%=      5-min Rain = 0
KMCS 060205Z 08002KT 07/03 A3026 RMK A01 T00740034  RH  077%=      5-min Rain = 0
KMCS 060210Z 09001KT 07/03 A3027 RMK A01 T00730033  RH  077%=      5-min Rain = 0
KMCS 060215Z 08002KT 07/03 A3027 RMK A01 T00720033  RH  078%=      5-min Rain = 0
KMCS 060220Z 08003KT 07/03 A3027 RMK A01 T00720034  RH  078%=      5-min Rain = 0
KMCS 060225Z 08002KT 07/03 A3027 RMK A01 T00720034  RH  078%=      5-min Rain = 0
KMCS 060230Z 11001KT 07/03 A3027 RMK A01 T00720034  RH  079%=      5-min Rain = 0
KMCS 060235Z 11001KT 07/03 A3027 RMK A01 T00710034  RH  079%=      5-min Rain = 0
KMCS 060240Z 11002KT 07/03 A3028 RMK A01 T00710034  RH  079%=      5-min Rain = 0
KMCS 060245Z 12002KT 07/03 A3028 RMK A01 T00710034  RH  079%=      5-min Rain = 0
KMCS 060250Z 11003KT 07/04 A3028 RMK A01 T00730036  RH  079%=      5-min Rain = 0
KMCS 060255Z 10003KT 07/04 A3028 RMK A01 T00730036  RH  079%=      5-min Rain = 0
KMCS 060300Z 10003KT 07/04 A3028 RMK A01 T00730036  RH  079%=      5-min Rain = 0
KMCS 060305Z 11003KT 07/04 A3028 RMK A01 T00720036  RH  080%=      5-min Rain = 0
KMCS 060310Z 11004KT 07/04 A3028 RMK A01 T00710037  RH  080%=      5-min Rain = 0
KMCS 060315Z 11004KT 07/04 A3029 RMK A01 T00700036  RH  081%=      5-min Rain = 0
KMCS 060320Z 11003KT 07/04 A3029 RMK A01 T00680036  RH  082%=      5-min Rain = 0
KMCS 060325Z 12003KT 07/04 A3029 RMK A01 T00680037  RH  082%=      5-min Rain = 0
KMCS 060330Z 12002KT 07/04 A3029 RMK A01 T00660035  RH  082%=      5-min Rain = 0
KMCS 060335Z 12002KT 06/03 A3029 RMK A01 T00630034  RH  083%=      5-min Rain = 0
KMCS 060340Z 13002KT 06/03 A3029 RMK A01 T00610034  RH  085%=      5-min Rain = 0
KMCS 060345Z 13001KT 06/03 A3029 RMK A01 T00600034  RH  085%=      5-min Rain = 0
KMCS 060350Z 13001KT 06/03 A3029 RMK A01 T00560033  RH  086%=      5-min Rain = 0
KMCS 060355Z 13001KT 06/04 A3029 RMK A01 T00570035  RH  088%=      5-min Rain = 0
KMCS 060400Z 13001KT 06/04 A3029 RMK A01 T00580036  RH  088%=      5-min Rain = 0
KMCS 060405Z 13001KT 06/04 A303 RMK A01 T00610039  RH  088%=      5-min Rain = 0
KMCS 060410Z 12002KT 06/04 A303 RMK A01 T00620039  RH  087%=      5-min Rain = 0
KMCS 060415Z 10002KT 06/04 A303 RMK A01 T00620040  RH  087%=      5-min Rain = 0
KMCS 060420Z 10003KT 07/04 A303 RMK A01 T00650042  RH  087%=      5-min Rain = 0
KMCS 060425Z 10002KT 07/04 A303 RMK A01 T00670043  RH  086%=      5-min Rain = 0
KMCS 060430Z 10002KT 07/04 A303 RMK A01 T00670042  RH  086%=      5-min Rain = 0
KMCS 060435Z 10002KT 06/04 A303 RMK A01 T00640038  RH  085%=      5-min Rain = 0
KMCS 060440Z 10001KT 05/03 A303 RMK A01 T00510028  RH  087%=      5-min Rain = 0
KMCS 060445Z 11000KT 05/03 A303 RMK A01 T00480030  RH  090%=      5-min Rain = 0
KMCS 060450Z 22000KT 05/03 A303 RMK A01 T00480032  RH  091%=      5-min Rain = 0
KMCS 060455Z 23002KT 05/03 A303 RMK A01 T00450028  RH  090%=      5-min Rain = 0
KMCS 060500Z 23003KT 04/02 A303 RMK A01 T00400023  RH  090%=      5-min Rain = 0
KMCS 060505Z 23003KT 03/02 A3031 RMK A01 T00340018  RH  091%=      5-min Rain = 0
KMCS 060510Z 24004KT 03/02 A3031 RMK A01 T00330019  RH  092%=      5-min Rain = 0
KMCS 060515Z 25005KT 04/02 A3031 RMK A01 T00350023  RH  093%=      5-min Rain = 0
KMCS 060520Z 24004KT 04/03 A3031 RMK A01 T00370025  RH  093%=      5-min Rain = 0
KMCS 060525Z 24004KT 04/03 A3031 RMK A01 T00400028  RH  093%=      5-min Rain = 0
KMCS 060530Z 24004KT 04/03 A3031 RMK A01 T00430030  RH  093%=      5-min Rain = 0
KMCS 060535Z 24004KT 05/03 A3031 RMK A01 T00460032  RH  093%=      5-min Rain = 0
KMCS 060540Z 24004KT 05/03 A3031 RMK A01 T00470032  RH  092%=      5-min Rain = 0
KMCS 060545Z 25005KT 05/03 A3031 RMK A01 T00460031  RH  092%=      5-min Rain = 0
KMCS 060550Z 25005KT 04/03 A3031 RMK A01 T00440030  RH  092%=      5-min Rain = 0
KMCS 060555Z 24004KT 05/03 A3031 RMK A01 T00450031  RH  092%=      5-min Rain = 0

Page generated in 0.0083 seconds.